Time;durP1;ratioP1;P1;durP2;ratioP2;P2;SDS_P1;SDS_P2;PMS_P1;PMS_P2;Temp;Humidity;BMP_temperature;BMP_pressure;BME280_temperature;BME280_humidity;BME280_pressure;Samples;Min_cycle;Max_cycle;Signal;HPM_P1;HPM_P2
2023/01/14 00:01:51;;;;;;;20.67;2.60;;;;;;;;;;5035220;28;20527;-68
2023/01/14 00:04:17;;;;;;;15.05;3.15;;;;;;;;;;5035462;28;20026;-68
2023/01/14 00:06:43;;;;;;;15.98;2.80;;;;;;;;;;5035482;28;20040;-68
2023/01/14 00:09:14;;;;;;;24.50;3.45;;;;;;;;;;5035205;28;20100;-68
2023/01/14 00:11:46;;;;;;;14.77;3.03;;;;;;;;;;5035543;28;20053;-68
2023/01/14 00:14:18;;;;;;;26.97;3.40;;;;;;;;;;5035225;28;20079;-68
2023/01/14 00:16:44;;;;;;;23.07;3.37;;;;;;;;;;5035334;28;20399;-68
2023/01/14 00:19:11;;;;;;;24.23;4.43;;;;;;;;;;5035176;28;20017;-68
2023/01/14 00:21:37;;;;;;;18.42;3.13;;;;;;;;;;5035520;28;20041;-68
2023/01/14 00:24:04;;;;;;;22.00;3.78;;;;;;;;;;5034051;28;20545;-68
2023/01/14 00:26:30;;;;;;;21.15;3.78;;;;;;;;;;5034987;28;20029;-68
2023/01/14 00:28:56;;;;;;;17.67;3.17;;;;;;;;;;5033062;28;20083;-68
2023/01/14 00:31:23;;;;;;;12.50;3.13;;;;;;;;;;5034400;28;20034;-68
2023/01/14 00:33:52;;;;;;;18.15;3.22;;;;;;;;;;5024481;28;20021;-68
2023/01/14 00:36:19;;;;;;;22.08;3.70;;;;;;;;;;5034378;28;20064;-68
2023/01/14 00:38:45;;;;;;;18.38;4.75;;;;;;;;;;5034673;28;20084;-68
2023/01/14 00:41:18;;;;;;;17.77;3.15;;;;;;;;;;5034432;28;20466;-68
2023/01/14 00:43:46;;;;;;;21.70;3.13;;;;;;;;;;5035086;28;20029;-68
2023/01/14 00:46:14;;;;;;;24.20;3.50;;;;;;;;;;5034783;28;20515;-68
2023/01/14 00:48:40;;;;;;;20.92;4.20;;;;;;;;;;5034414;28;20040;-68
2023/01/14 00:51:07;;;;;;;14.50;2.97;;;;;;;;;;5034770;28;20481;-68
2023/01/14 00:53:33;;;;;;;18.65;3.28;;;;;;;;;;5034166;28;20048;-68
2023/01/14 00:56:00;;;;;;;24.17;4.70;;;;;;;;;;5034017;28;20592;-68
2023/01/14 00:58:26;;;;;;;26.98;3.28;;;;;;;;;;5033521;28;20274;-68
2023/01/14 01:00:54;;;;;;;32.10;3.65;;;;;;;;;;5029413;28;20048;-68
2023/01/14 01:03:20;;;;;;;22.88;4.53;;;;;;;;;;5014734;28;20471;-68
2023/01/14 01:05:47;;;;;;;20.17;3.88;;;;;;;;;;5015453;28;20470;-68
2023/01/14 01:08:14;;;;;;;21.05;4.05;;;;;;;;;;5033966;28;20044;-68
2023/01/14 01:10:44;;;;;;;22.65;4.95;;;;;;;;;;5034295;28;20029;-68
2023/01/14 01:13:11;;;;;;;21.20;4.07;;;;;;;;;;5034007;28;20032;-68
2023/01/14 01:15:38;;;;;;;20.63;2.70;;;;;;;;;;5034195;28;20029;-69
2023/01/14 01:18:05;;;;;;;23.15;3.50;;;;;;;;;;5033718;28;20461;-68
2023/01/14 01:20:31;;;;;;;17.52;2.80;;;;;;;;;;5033835;28;20029;-68
2023/01/14 01:22:59;;;;;;;23.05;3.15;;;;;;;;;;5033906;28;20030;-68
2023/01/14 01:25:25;;;;;;;22.92;3.03;;;;;;;;;;5033959;28;20466;-68
2023/01/14 01:27:51;;;;;;;18.48;2.83;;;;;;;;;;5034330;28;20474;-68
2023/01/14 01:30:17;;;;;;;23.08;3.35;;;;;;;;;;5033806;28;20025;-68
2023/01/14 01:32:44;;;;;;;29.30;4.28;;;;;;;;;;5034041;28;20463;-68
2023/01/14 01:35:10;;;;;;;20.52;2.97;;;;;;;;;;5033569;28;20045;-68
2023/01/14 01:37:36;;;;;;;15.23;3.28;;;;;;;;;;5031368;28;20397;-68
2023/01/14 01:40:03;;;;;;;24.25;3.38;;;;;;;;;;5032492;28;20021;-68
2023/01/14 01:42:33;;;;;;;21.60;3.35;;;;;;;;;;5031790;28;20061;-68
2023/01/14 01:45:10;;;;;;;13.75;2.70;;;;;;;;;;5033949;28;20037;-66
2023/01/14 01:47:36;;;;;;;18.75;3.60;;;;;;;;;;5033469;28;20104;-68
2023/01/14 01:50:02;;;;;;;21.20;3.72;;;;;;;;;;5015596;28;20044;-68
2023/01/14 01:52:29;;;;;;;18.42;2.60;;;;;;;;;;5033378;28;20097;-67
2023/01/14 01:55:02;;;;;;;21.02;3.17;;;;;;;;;;5033447;28;20100;-67
2023/01/14 01:57:28;;;;;;;15.70;3.22;;;;;;;;;;5032074;28;20660;-67
2023/01/14 01:59:57;;;;;;;15.70;3.25;;;;;;;;;;5015421;28;20471;-67
2023/01/14 02:02:24;;;;;;;18.55;3.20;;;;;;;;;;5015482;28;20040;-67
2023/01/14 02:04:50;;;;;;;19.77;2.85;;;;;;;;;;5012078;28;20108;-67
2023/01/14 02:07:17;;;;;;;24.98;4.13;;;;;;;;;;5031107;28;20089;-67
2023/01/14 02:09:44;;;;;;;16.52;3.38;;;;;;;;;;5031723;28;20069;-67
2023/01/14 02:12:20;;;;;;;12.27;2.95;;;;;;;;;;5022545;28;20071;-67
2023/01/14 02:14:52;;;;;;;21.67;4.60;;;;;;;;;;5031792;28;20037;-67
2023/01/14 02:17:24;;;;;;;16.52;3.25;;;;;;;;;;5033128;28;20084;-67
2023/01/14 02:20:05;;;;;;;20.55;3.05;;;;;;;;;;5032282;28;20033;-67
2023/01/14 02:22:50;;;;;;;18.85;3.13;;;;;;;;;;5032703;28;20033;-67
2023/01/14 02:25:17;;;;;;;18.15;3.13;;;;;;;;;;5031394;28;20087;-67
2023/01/14 02:27:47;;;;;;;31.27;5.07;;;;;;;;;;5030951;28;20053;-67
2023/01/14 02:30:37;;;;;;;17.42;3.42;;;;;;;;;;5031737;28;20033;-67
2023/01/14 02:33:09;;;;;;;22.73;3.45;;;;;;;;;;5032519;28;20055;-67
2023/01/14 02:35:51;;;;;;;22.95;3.17;;;;;;;;;;5031101;28;20041;-67
2023/01/14 02:38:18;;;;;;;20.98;3.72;;;;;;;;;;5031753;28;20036;-67
2023/01/14 02:40:50;;;;;;;21.52;3.20;;;;;;;;;;5021714;28;20117;-67
2023/01/14 02:46:16;;;;;;;27.23;5.28;;;;;;;;;;5011901;28;20486;-67
2023/01/14 02:48:43;;;;;;;24.20;3.72;;;;;;;;;;5012623;28;20079;-67
2023/01/14 02:51:10;;;;;;;22.50;3.58;;;;;;;;;;5013214;28;20033;-67
2023/01/14 02:53:36;;;;;;;20.60;3.03;;;;;;;;;;5011524;28;20040;-67
2023/01/14 02:56:03;;;;;;;16.60;2.53;;;;;;;;;;5011691;28;20038;-67
2023/01/14 02:58:38;;;;;;;32.90;5.97;;;;;;;;;;5011516;28;20026;-67
2023/01/14 03:01:23;;;;;;;27.75;4.32;;;;;;;;;;5026844;28;20031;-67
2023/01/14 03:04:09;;;;;;;21.15;3.88;;;;;;;;;;5031165;28;20420;-67
2023/01/14 03:06:42;;;;;;;16.15;2.95;;;;;;;;;;5031002;28;20086;-67
2023/01/14 03:09:21;;;;;;;15.95;3.00;;;;;;;;;;5031435;28;20038;-67
2023/01/14 03:11:54;;;;;;;12.55;2.65;;;;;;;;;;5031858;28;20029;-67
2023/01/14 03:14:23;;;;;;;16.98;2.97;;;;;;;;;;5036289;28;20025;-67
2023/01/14 03:16:55;;;;;;;27.13;2.88;;;;;;;;;;5034936;28;20026;-67
2023/01/14 03:19:24;;;;;;;16.85;2.80;;;;;;;;;;5034664;28;20088;-67
2023/01/14 03:21:52;;;;;;;18.05;3.08;;;;;;;;;;5019282;28;20021;-67
2023/01/14 03:24:22;;;;;;;23.55;2.88;;;;;;;;;;5016551;28;20080;-67
2023/01/14 03:26:50;;;;;;;17.67;2.95;;;;;;;;;;5015192;28;20054;-67
2023/01/14 03:29:20;;;;;;;14.25;2.42;;;;;;;;;;5016518;28;20018;-67
2023/01/14 03:31:50;;;;;;;11.20;3.35;;;;;;;;;;5014895;28;20030;-67
2023/01/14 03:34:19;;;;;;;19.92;2.97;;;;;;;;;;5016392;28;20033;-66
2023/01/14 03:36:47;;;;;;;14.43;2.38;;;;;;;;;;5007392;28;20127;-67
2023/01/14 03:39:15;;;;;;;11.57;2.35;;;;;;;;;;5036314;28;20100;-67
2023/01/14 03:44:29;;;;;;;23.58;2.83;;;;;;;;;;5034490;28;20516;-67
2023/01/14 03:46:55;;;;;;;18.02;2.38;;;;;;;;;;5035681;28;20442;-67
2023/01/14 03:49:22;;;;;;;15.73;2.20;;;;;;;;;;5035984;28;20022;-67
2023/01/14 03:51:48;;;;;;;14.95;2.20;;;;;;;;;;5034522;28;20478;-67
2023/01/14 03:54:24;;;;;;;10.95;2.38;;;;;;;;;;5036052;28;20056;-67
2023/01/14 03:56:58;;;;;;;13.68;1.95;;;;;;;;;;5035764;28;20482;-67
2023/01/14 03:59:29;;;;;;;7.78;1.83;;;;;;;;;;5035843;28;20033;-67
2023/01/14 04:01:56;;;;;;;13.50;2.25;;;;;;;;;;5035316;28;20033;-67
2023/01/14 04:04:23;;;;;;;8.30;1.75;;;;;;;;;;5035878;28;20022;-67
2023/01/14 04:06:50;;;;;;;9.88;1.98;;;;;;;;;;5022965;28;20018;-67
2023/01/14 04:09:16;;;;;;;9.45;1.60;;;;;;;;;;5015815;28;20466;-67
2023/01/14 04:11:42;;;;;;;12.88;2.20;;;;;;;;;;5015761;28;20121;-67
2023/01/14 04:16:53;;;;;;;7.32;2.58;;;;;;;;;;5034092;28;20041;-67
2023/01/14 04:19:19;;;;;;;9.00;1.65;;;;;;;;;;5037549;28;20363;-67
2023/01/14 04:21:45;;;;;;;13.10;2.20;;;;;;;;;;5035157;28;20028;-67
2023/01/14 04:24:11;;;;;;;10.05;2.00;;;;;;;;;;5033719;28;20037;-66
2023/01/14 04:26:38;;;;;;;10.82;1.83;;;;;;;;;;5035615;28;20023;-66
2023/01/14 04:29:04;;;;;;;10.70;2.00;;;;;;;;;;5044032;28;20022;-66
2023/01/14 04:31:30;;;;;;;11.50;3.10;;;;;;;;;;5038223;28;20025;-67
2023/01/14 04:33:56;;;;;;;12.20;2.45;;;;;;;;;;5043689;28;20079;-67
2023/01/14 04:36:22;;;;;;;13.07;2.17;;;;;;;;;;5042491;28;20042;-66
2023/01/14 04:38:48;;;;;;;16.58;3.28;;;;;;;;;;5044337;28;20151;-67
2023/01/14 04:43:59;;;;;;;12.27;2.47;;;;;;;;;;5042297;28;20125;-66
2023/01/14 04:46:26;;;;;;;18.38;2.83;;;;;;;;;;5044573;28;20056;-66
2023/01/14 04:48:52;;;;;;;18.63;2.75;;;;;;;;;;5029963;28;20030;-66
2023/01/14 04:51:18;;;;;;;19.92;3.20;;;;;;;;;;5024427;28;20033;-66
2023/01/14 04:53:44;;;;;;;13.02;2.40;;;;;;;;;;5024081;28;20092;-67
2023/01/14 04:56:10;;;;;;;18.05;3.20;;;;;;;;;;5023602;28;20018;-66
2023/01/14 04:58:36;;;;;;;21.13;3.67;;;;;;;;;;5022047;28;20029;-66
2023/01/14 05:01:02;;;;;;;15.82;2.95;;;;;;;;;;5024262;28;20037;-67
2023/01/14 05:03:28;;;;;;;20.00;3.40;;;;;;;;;;5022332;28;20026;-67
2023/01/14 05:05:54;;;;;;;14.73;2.60;;;;;;;;;;5021371;28;20033;-67
2023/01/14 05:08:21;;;;;;;12.43;2.65;;;;;;;;;;5024188;28;20093;-66
2023/01/14 05:10:50;;;;;;;17.55;3.13;;;;;;;;;;5022772;28;20052;-66
2023/01/14 05:13:16;;;;;;;17.00;3.08;;;;;;;;;;5024117;28;20113;-66
2023/01/14 05:15:43;;;;;;;16.88;3.10;;;;;;;;;;5021863;28;20026;-66
2023/01/14 05:18:11;;;;;;;13.25;2.60;;;;;;;;;;5022896;28;20025;-67
2023/01/14 05:20:37;;;;;;;14.68;2.40;;;;;;;;;;5023907;28;20025;-66
2023/01/14 05:23:05;;;;;;;15.00;3.20;;;;;;;;;;5021912;28;20045;-66
2023/01/14 05:25:31;;;;;;;20.17;2.70;;;;;;;;;;5022732;28;20022;-66
2023/01/14 05:28:05;;;;;;;21.75;3.13;;;;;;;;;;5023060;28;20072;-66
2023/01/14 05:30:31;;;;;;;18.63;2.28;;;;;;;;;;5023086;28;20121;-66
2023/01/14 05:32:57;;;;;;;14.45;2.30;;;;;;;;;;5021396;28;20034;-66
2023/01/14 05:35:24;;;;;;;14.07;2.72;;;;;;;;;;5023706;28;20048;-66
2023/01/14 05:37:50;;;;;;;10.35;2.30;;;;;;;;;;5025595;28;20029;-66
2023/01/14 05:40:17;;;;;;;16.83;2.65;;;;;;;;;;5038244;28;20664;-66
2023/01/14 05:48:12;;;;;;;12.60;2.20;;;;;;;;;;5021421;28;20109;-66
2023/01/14 05:50:39;;;;;;;18.73;2.25;;;;;;;;;;5022392;28;20083;-66
2023/01/14 05:53:05;;;;;;;12.90;2.17;;;;;;;;;;5025005;28;20113;-67
2023/01/14 05:55:32;;;;;;;16.27;2.50;;;;;;;;;;5043614;28;20079;-66
2023/01/14 05:57:59;;;;;;;14.77;2.10;;;;;;;;;;5034947;28;20063;-66
2023/01/14 06:06:21;;;;;;;10.55;1.73;;;;;;;;;;5037891;28;20033;-66
2023/01/14 06:08:51;;;;;;;15.38;2.30;;;;;;;;;;5042596;28;20060;-66
2023/01/14 06:11:20;;;;;;;11.23;2.33;;;;;;;;;;5043002;28;20472;-66
2023/01/14 06:13:47;;;;;;;17.20;2.50;;;;;;;;;;5040852;28;20048;-66
2023/01/14 06:16:13;;;;;;;9.93;1.77;;;;;;;;;;5040595;28;20040;-66
2023/01/14 06:18:43;;;;;;;15.68;3.58;;;;;;;;;;5037281;28;20021;-66
2023/01/14 06:21:13;;;;;;;9.77;1.90;;;;;;;;;;5037905;28;20028;-66
2023/01/14 06:23:39;;;;;;;11.15;1.90;;;;;;;;;;5033793;28;20032;-66
2023/01/14 06:26:10;;;;;;;12.73;2.83;;;;;;;;;;5036534;28;20033;-66
2023/01/14 06:28:36;;;;;;;11.15;2.13;;;;;;;;;;5038722;28;20038;-66
2023/01/14 06:31:02;;;;;;;9.70;1.90;;;;;;;;;;5037064;28;20120;-66
2023/01/14 06:33:29;;;;;;;8.50;2.05;;;;;;;;;;5033915;28;20040;-66
2023/01/14 06:35:55;;;;;;;10.55;2.13;;;;;;;;;;5034699;28;20060;-66
2023/01/14 06:38:22;;;;;;;18.83;3.50;;;;;;;;;;5034750;28;20045;-66
2023/01/14 06:40:48;;;;;;;10.43;2.65;;;;;;;;;;5032847;28;20028;-66
2023/01/14 06:43:14;;;;;;;9.55;2.45;;;;;;;;;;5032485;28;20468;-68
2023/01/14 06:45:41;;;;;;;11.38;2.17;;;;;;;;;;5040905;28;20033;-69
2023/01/14 06:48:07;;;;;;;6.35;1.60;;;;;;;;;;5028214;28;20029;-66
2023/01/14 06:50:33;;;;;;;8.52;1.85;;;;;;;;;;5021723;28;20475;-66
2023/01/14 06:53:00;;;;;;;5.80;1.55;;;;;;;;;;5020315;28;20030;-66
2023/01/14 06:55:26;;;;;;;5.97;1.45;;;;;;;;;;5020733;28;20113;-66
2023/01/14 06:57:52;;;;;;;13.13;1.80;;;;;;;;;;5019581;28;20030;-65
2023/01/14 07:00:18;;;;;;;10.43;1.33;;;;;;;;;;5019390;28;20018;-66
2023/01/14 07:02:44;;;;;;;8.40;1.38;;;;;;;;;;5026945;28;20018;-66
2023/01/14 07:05:10;;;;;;;7.82;1.42;;;;;;;;;;5022204;28;20080;-66
2023/01/14 07:07:36;;;;;;;2.00;0.80;;;;;;;;;;5025697;28;20033;-66
2023/01/14 07:10:03;;;;;;;10.23;1.63;;;;;;;;;;5027371;28;20513;-67
2023/01/14 07:12:29;;;;;;;4.65;1.00;;;;;;;;;;5026789;28;20037;-66
2023/01/14 07:14:55;;;;;;;7.07;1.27;;;;;;;;;;5027725;28;20026;-66
2023/01/14 07:17:21;;;;;;;5.10;0.95;;;;;;;;;;5025191;28;20030;-66
2023/01/14 07:19:47;;;;;;;6.60;0.82;;;;;;;;;;5026132;28;20014;-66
2023/01/14 07:22:13;;;;;;;8.68;1.40;;;;;;;;;;5029635;28;20059;-67
2023/01/14 07:24:39;;;;;;;1.67;0.82;;;;;;;;;;5029448;28;20029;-66
2023/01/14 07:27:05;;;;;;;4.07;1.10;;;;;;;;;;5030086;28;20047;-66
2023/01/14 07:29:31;;;;;;;3.88;0.75;;;;;;;;;;5029828;28;20029;-66
2023/01/14 07:31:58;;;;;;;2.33;0.80;;;;;;;;;;5029683;28;20021;-66
2023/01/14 07:34:24;;;;;;;7.00;0.80;;;;;;;;;;5028701;28;20049;-66
2023/01/14 07:36:50;;;;;;;2.75;0.80;;;;;;;;;;5018472;28;20041;-65
2023/01/14 07:39:16;;;;;;;4.30;0.70;;;;;;;;;;5016080;28;20484;-66
2023/01/14 07:41:42;;;;;;;4.18;0.80;;;;;;;;;;5030625;28;20030;-65
2023/01/14 07:44:13;;;;;;;5.20;0.90;;;;;;;;;;5018599;28;20018;-65
2023/01/14 07:46:39;;;;;;;4.90;1.02;;;;;;;;;;5021385;28;20555;-65
2023/01/14 07:49:06;;;;;;;5.13;0.73;;;;;;;;;;5017617;28;20056;-66
2023/01/14 07:51:32;;;;;;;5.30;0.60;;;;;;;;;;5020360;28;20029;-65
2023/01/14 07:53:58;;;;;;;2.95;0.88;;;;;;;;;;5030328;28;20448;-66
2023/01/14 07:56:24;;;;;;;4.15;0.60;;;;;;;;;;5020408;28;20524;-65
2023/01/14 07:58:50;;;;;;;0.90;0.52;;;;;;;;;;5028260;28;20029;-65
2023/01/14 08:01:16;;;;;;;2.17;0.50;;;;;;;;;;5025247;28;20405;-65
2023/01/14 08:03:42;;;;;;;1.58;0.50;;;;;;;;;;5034991;28;20424;-65
2023/01/14 08:06:08;;;;;;;2.60;0.70;;;;;;;;;;5034628;28;20033;-66
2023/01/14 08:08:35;;;;;;;3.10;0.50;;;;;;;;;;5030628;28;20026;-66
2023/01/14 08:11:01;;;;;;;1.38;0.60;;;;;;;;;;5027216;28;20048;-66
2023/01/14 08:13:28;;;;;;;2.47;0.80;;;;;;;;;;5034873;28;21539;-66
2023/01/14 08:15:55;;;;;;;3.00;0.65;;;;;;;;;;5021957;28;20034;-66
2023/01/14 08:18:21;;;;;;;1.02;0.30;;;;;;;;;;5020429;28;20034;-66
2023/01/14 08:20:47;;;;;;;4.63;1.05;;;;;;;;;;5030680;28;20014;-65
2023/01/14 08:23:13;;;;;;;2.50;0.60;;;;;;;;;;5032748;28;20382;-66
2023/01/14 08:25:39;;;;;;;3.42;1.45;;;;;;;;;;5033585;28;20096;-65
2023/01/14 08:28:06;;;;;;;0.95;0.50;;;;;;;;;;5031313;28;20030;-66
2023/01/14 08:30:32;;;;;;;1.13;0.50;;;;;;;;;;5023691;28;20040;-66
2023/01/14 08:32:58;;;;;;;3.10;0.68;;;;;;;;;;5031214;28;20017;-65
2023/01/14 08:35:24;;;;;;;2.53;0.50;;;;;;;;;;5029806;28;20044;-66
2023/01/14 08:37:50;;;;;;;0.65;0.30;;;;;;;;;;5033400;28;20022;-66
2023/01/14 08:40:19;;;;;;;1.05;0.40;;;;;;;;;;5033618;28;20021;-65
2023/01/14 08:42:45;;;;;;;0.52;0.35;;;;;;;;;;5033250;28;20026;-66
2023/01/14 08:45:12;;;;;;;1.88;0.50;;;;;;;;;;5030326;28;20053;-67
2023/01/14 08:47:38;;;;;;;2.70;0.60;;;;;;;;;;5031456;28;20033;-67
2023/01/14 08:50:04;;;;;;;0.80;0.50;;;;;;;;;;5030453;28;20553;-66
2023/01/14 08:52:31;;;;;;;0.60;0.30;;;;;;;;;;5029286;28;20489;-67
2023/01/14 08:54:57;;;;;;;0.35;0.30;;;;;;;;;;5033296;28;20421;-66
2023/01/14 08:57:23;;;;;;;1.40;0.55;;;;;;;;;;5032299;28;20112;-66
2023/01/14 08:59:49;;;;;;;0.60;0.40;;;;;;;;;;5033143;28;20025;-66
2023/01/14 09:02:15;;;;;;;0.28;0.28;;;;;;;;;;5023153;28;20444;-66
2023/01/14 09:04:41;;;;;;;1.65;0.30;;;;;;;;;;5032898;28;20025;-66
2023/01/14 09:18:08;;;;;;;0.22;0.20;;;;;;;;;;5028576;28;20029;-67
2023/01/14 09:20:35;;;;;;;0.65;0.30;;;;;;;;;;5023795;28;20032;-66
2023/01/14 09:23:02;;;;;;;1.08;0.25;;;;;;;;;;5032659;28;20061;-66
2023/01/14 09:25:28;;;;;;;0.25;0.22;;;;;;;;;;5024923;28;20383;-66
2023/01/14 09:27:54;;;;;;;0.90;0.32;;;;;;;;;;5025372;28;20038;-67
2023/01/14 09:30:21;;;;;;;0.85;0.47;;;;;;;;;;5027392;28;20060;-68
2023/01/14 09:32:47;;;;;;;2.35;0.60;;;;;;;;;;5027540;28;20039;-68
2023/01/14 09:35:13;;;;;;;0.70;0.25;;;;;;;;;;5032872;28;20076;-67
2023/01/14 09:37:39;;;;;;;1.08;0.50;;;;;;;;;;5031921;28;20030;-68
2023/01/14 09:40:06;;;;;;;0.75;0.30;;;;;;;;;;5033450;28;20021;-68
2023/01/14 09:42:34;;;;;;;1.05;0.38;;;;;;;;;;5032221;28;20017;-68
2023/01/14 09:45:12;;;;;;;2.97;0.30;;;;;;;;;;5034437;28;20112;-68
2023/01/14 09:47:38;;;;;;;0.93;0.47;;;;;;;;;;5028666;28;20025;-68
2023/01/14 09:50:07;;;;;;;1.55;0.10;;;;;;;;;;5024765;28;20022;-68
2023/01/14 09:52:48;;;;;;;1.98;0.47;;;;;;;;;;5023764;28;20025;-68
2023/01/14 09:55:26;;;;;;;2.53;0.50;;;;;;;;;;5032420;28;20048;-68
2023/01/14 09:57:57;;;;;;;1.05;0.38;;;;;;;;;;5024789;28;20298;-67
2023/01/14 10:00:26;;;;;;;3.45;1.33;;;;;;;;;;5031519;28;20029;-66
2023/01/14 10:02:55;;;;;;;1.90;0.40;;;;;;;;;;5029142;28;20365;-67
2023/01/14 10:05:23;;;;;;;0.98;0.50;;;;;;;;;;5030339;28;20021;-66
2023/01/14 10:07:49;;;;;;;2.70;0.63;;;;;;;;;;5032861;28;20652;-65
2023/01/14 10:10:26;;;;;;;0.80;0.52;;;;;;;;;;5029735;28;20405;-66
2023/01/14 10:12:57;;;;;;;1.08;0.43;;;;;;;;;;5032683;28;20033;-66
2023/01/14 10:15:36;;;;;;;1.20;0.45;;;;;;;;;;5032507;28;20029;-66
2023/01/14 10:18:14;;;;;;;2.50;0.60;;;;;;;;;;5032577;28;20026;-66
2023/01/14 10:20:49;;;;;;;1.25;0.65;;;;;;;;;;5021229;28;20059;-66
2023/01/14 10:23:18;;;;;;;1.98;0.43;;;;;;;;;;5031969;28;20051;-66
2023/01/14 10:25:48;;;;;;;1.63;0.40;;;;;;;;;;5032293;28;20036;-66
2023/01/14 10:28:16;;;;;;;1.08;0.40;;;;;;;;;;5022328;28;20286;-66
2023/01/14 10:30:43;;;;;;;1.83;0.60;;;;;;;;;;5032563;28;20390;-66
2023/01/14 10:33:14;;;;;;;0.55;0.50;;;;;;;;;;5030976;28;20456;-66
2023/01/14 10:35:42;;;;;;;3.75;0.73;;;;;;;;;;5032369;28;20049;-66
2023/01/14 10:38:10;;;;;;;1.98;0.43;;;;;;;;;;5032505;28;20048;-66
2023/01/14 10:40:38;;;;;;;4.97;0.80;;;;;;;;;;5032572;28;20071;-66
2023/01/14 10:43:04;;;;;;;4.13;0.73;;;;;;;;;;5024667;28;20037;-66
2023/01/14 10:45:30;;;;;;;2.83;0.60;;;;;;;;;;5024144;28;20162;-66
2023/01/14 10:48:02;;;;;;;2.88;0.52;;;;;;;;;;5026943;28;20043;-66
2023/01/14 10:50:29;;;;;;;1.57;0.80;;;;;;;;;;5029892;28;20021;-66
2023/01/14 10:53:14;;;;;;;4.80;0.93;;;;;;;;;;5030160;28;20379;-66
2023/01/14 10:55:46;;;;;;;4.03;0.90;;;;;;;;;;5030457;28;20028;-66
2023/01/14 10:58:15;;;;;;;1.77;0.70;;;;;;;;;;5029519;28;20028;-66
2023/01/14 11:00:47;;;;;;;2.83;0.80;;;;;;;;;;5026946;28;20465;-66
2023/01/14 11:03:27;;;;;;;3.13;0.60;;;;;;;;;;5028787;28;20036;-66
2023/01/14 11:05:56;;;;;;;3.42;1.00;;;;;;;;;;5024850;28;20029;-67
2023/01/14 11:08:28;;;;;;;3.22;1.02;;;;;;;;;;5026539;28;20033;-66
2023/01/14 11:10:56;;;;;;;1.92;0.70;;;;;;;;;;5026983;28;20033;-66
2023/01/14 11:13:31;;;;;;;5.70;0.80;;;;;;;;;;5025846;28;20057;-66
2023/01/14 11:15:57;;;;;;;3.35;1.02;;;;;;;;;;5026731;28;20048;-66
2023/01/14 11:18:28;;;;;;;3.83;1.45;;;;;;;;;;5026955;28;20180;-66
2023/01/14 11:21:20;;;;;;;3.75;0.90;;;;;;;;;;5029286;28;20060;-66
2023/01/14 11:23:53;;;;;;;4.05;1.05;;;;;;;;;;5033125;28;20026;-67
2023/01/14 11:26:22;;;;;;;3.05;0.90;;;;;;;;;;5023668;28;20044;-67
2023/01/14 11:28:49;;;;;;;2.05;1.08;;;;;;;;;;5022919;28;20112;-66
2023/01/14 11:31:17;;;;;;;5.55;0.90;;;;;;;;;;5026894;28;20030;-67
2023/01/14 11:33:51;;;;;;;4.93;1.00;;;;;;;;;;5028512;28;20506;-66
2023/01/14 11:36:21;;;;;;;2.65;0.93;;;;;;;;;;5018290;28;20049;-66
2023/01/14 11:38:47;;;;;;;4.30;1.10;;;;;;;;;;5015179;28;20021;-67
2023/01/14 11:41:32;;;;;;;4.60;1.08;;;;;;;;;;5018341;28;20075;-66
2023/01/14 11:43:58;;;;;;;3.65;1.20;;;;;;;;;;5016893;28;20029;-66
2023/01/14 11:46:24;;;;;;;3.70;0.90;;;;;;;;;;5021340;28;20033;-67
2023/01/14 11:49:09;;;;;;;3.80;1.00;;;;;;;;;;5015227;28;20030;-67
2023/01/14 11:51:38;;;;;;;1.85;0.70;;;;;;;;;;5016974;28;20030;-67
2023/01/14 11:54:04;;;;;;;2.05;0.60;;;;;;;;;;5019439;28;20040;-66
2023/01/14 11:56:33;;;;;;;2.20;0.75;;;;;;;;;;5019690;28;20036;-66
2023/01/14 11:59:01;;;;;;;1.83;0.57;;;;;;;;;;5017446;28;20049;-67
2023/01/14 12:01:27;;;;;;;2.10;0.50;;;;;;;;;;5020131;28;20029;-66
2023/01/14 12:03:59;;;;;;;3.88;0.75;;;;;;;;;;5019683;28;20026;-66
2023/01/14 12:06:28;;;;;;;5.83;0.90;;;;;;;;;;5019346;28;20559;-67
2023/01/14 12:08:55;;;;;;;5.03;1.60;;;;;;;;;;5020387;28;20025;-67
2023/01/14 12:11:34;;;;;;;7.13;1.60;;;;;;;;;;5018155;28;20034;-67
2023/01/14 12:17:08;;;;;;;2.15;0.80;;;;;;;;;;5025937;28;20053;-67
2023/01/14 12:19:40;;;;;;;6.35;1.67;;;;;;;;;;5025631;28;20041;-66
2023/01/14 12:22:17;;;;;;;9.98;2.25;;;;;;;;;;5028585;28;20551;-66
2023/01/14 12:24:57;;;;;;;7.60;1.45;;;;;;;;;;5028622;28;20029;-66
2023/01/14 12:27:44;;;;;;;14.68;2.00;;;;;;;;;;5026854;28;20037;-66
2023/01/14 12:30:10;;;;;;;14.43;2.05;;;;;;;;;;5029593;28;20083;-67
2023/01/14 12:32:38;;;;;;;13.75;2.45;;;;;;;;;;5024508;28;20133;-66
2023/01/14 12:35:05;;;;;;;11.98;2.20;;;;;;;;;;5030267;28;20042;-66
2023/01/14 12:37:43;;;;;;;19.23;3.65;;;;;;;;;;5029017;28;20087;-65
2023/01/14 12:45:54;;;;;;;18.88;3.78;;;;;;;;;;5026668;28;20464;-65
2023/01/14 12:48:21;;;;;;;16.67;2.95;;;;;;;;;;5028189;28;20040;-65
2023/01/14 12:50:50;;;;;;;27.42;4.05;;;;;;;;;;5027663;28;20034;-65
2023/01/14 12:53:18;;;;;;;33.30;4.38;;;;;;;;;;5027594;28;20049;-66
2023/01/14 12:55:46;;;;;;;18.52;3.00;;;;;;;;;;5028513;28;20033;-65
2023/01/14 12:58:22;;;;;;;22.25;3.63;;;;;;;;;;5030779;28;20043;-65
2023/01/14 13:00:49;;;;;;;25.58;4.10;;;;;;;;;;5028453;28;20036;-66
2023/01/14 13:03:20;;;;;;;27.63;5.55;;;;;;;;;;5022550;28;20037;-66
2023/01/14 13:05:46;;;;;;;25.83;5.40;;;;;;;;;;5027032;28;20087;-65
2023/01/14 13:08:22;;;;;;;16.88;3.25;;;;;;;;;;5031626;28;20442;-66
2023/01/14 13:10:56;;;;;;;24.45;3.42;;;;;;;;;;5021199;28;20540;-65
2023/01/14 13:13:24;;;;;;;23.20;3.95;;;;;;;;;;5026197;28;20022;-66
2023/01/14 13:15:50;;;;;;;20.20;3.63;;;;;;;;;;5027633;28;20040;-65
2023/01/14 13:18:34;;;;;;;22.27;3.83;;;;;;;;;;5030139;28;20025;-65
2023/01/14 13:21:08;;;;;;;15.18;4.47;;;;;;;;;;5025424;28;20025;-65
2023/01/14 13:23:37;;;;;;;16.67;3.80;;;;;;;;;;5021203;28;20030;-65
2023/01/14 13:26:29;;;;;;;24.10;4.00;;;;;;;;;;5031521;28;20029;-65
2023/01/14 13:29:14;;;;;;;25.08;4.07;;;;;;;;;;5031850;28;20092;-65
2023/01/14 13:31:40;;;;;;;22.83;3.88;;;;;;;;;;5030188;28;20079;-66
2023/01/14 13:34:21;;;;;;;26.00;3.85;;;;;;;;;;5030135;28;20449;-66
2023/01/14 13:37:08;;;;;;;26.10;5.03;;;;;;;;;;5029423;28;20052;-65
2023/01/14 13:39:34;;;;;;;20.52;4.80;;;;;;;;;;5016460;28;20061;-65
2023/01/14 13:42:01;;;;;;;23.20;4.30;;;;;;;;;;5027354;28;20040;-67
2023/01/14 13:44:38;;;;;;;17.85;5.25;;;;;;;;;;5027916;28;20029;-67
2023/01/14 13:47:06;;;;;;;22.75;4.47;;;;;;;;;;5028286;28;20045;-68
2023/01/14 13:49:37;;;;;;;24.67;3.72;;;;;;;;;;5027863;28;20021;-67
2023/01/14 13:52:13;;;;;;;17.33;3.78;;;;;;;;;;5028017;28;20061;-67
2023/01/14 13:54:39;;;;;;;19.42;2.97;;;;;;;;;;5027744;28;20029;-66
2023/01/14 13:57:13;;;;;;;16.25;3.20;;;;;;;;;;5027927;28;20033;-67
2023/01/14 13:59:41;;;;;;;14.73;2.17;;;;;;;;;;5027246;28;20042;-67
2023/01/14 14:02:25;;;;;;;6.75;1.38;;;;;;;;;;5028058;28;20025;-67
2023/01/14 14:04:55;;;;;;;9.43;2.22;;;;;;;;;;5026086;28;20540;-67
2023/01/14 14:07:39;;;;;;;17.80;2.83;;;;;;;;;;5026704;28;20100;-67
2023/01/14 14:10:07;;;;;;;13.18;2.83;;;;;;;;;;5027025;28;20029;-66
2023/01/14 14:15:23;;;;;;;11.32;2.72;;;;;;;;;;5029508;28;20029;-66
2023/01/14 14:17:55;;;;;;;21.45;3.40;;;;;;;;;;5029749;28;20025;-66
2023/01/14 14:20:22;;;;;;;14.45;2.47;;;;;;;;;;5027396;28;20458;-66
2023/01/14 14:22:59;;;;;;;17.98;2.88;;;;;;;;;;5029973;28;20033;-66
2023/01/14 14:25:32;;;;;;;22.98;3.45;;;;;;;;;;5028223;28;20029;-67
2023/01/14 14:27:59;;;;;;;18.48;3.90;;;;;;;;;;5027143;28;20026;-68
2023/01/14 14:30:35;;;;;;;31.40;4.60;;;;;;;;;;5019762;28;20520;-67
2023/01/14 14:33:01;;;;;;;32.78;4.95;;;;;;;;;;5029147;28;20056;-67
2023/01/14 14:35:28;;;;;;;24.30;3.47;;;;;;;;;;5028927;28;20034;-67
2023/01/14 14:38:00;;;;;;;21.17;4.32;;;;;;;;;;5029436;28;20025;-67
2023/01/14 14:40:28;;;;;;;25.33;4.82;;;;;;;;;;5025250;28;20048;-68
2023/01/14 14:42:56;;;;;;;24.92;4.47;;;;;;;;;;5024948;28;20217;-67
2023/01/14 14:45:29;;;;;;;26.70;4.05;;;;;;;;;;5030075;28;20032;-67
2023/01/14 14:47:56;;;;;;;19.10;3.75;;;;;;;;;;5030487;28;20025;-68
2023/01/14 14:50:27;;;;;;;33.40;4.43;;;;;;;;;;5029183;28;20120;-68
2023/01/14 14:52:53;;;;;;;34.85;6.90;;;;;;;;;;5026968;28;20448;-67
2023/01/14 14:55:19;;;;;;;32.42;6.20;;;;;;;;;;5028883;28;20038;-67
2023/01/14 14:57:45;;;;;;;23.27;5.15;;;;;;;;;;5026286;28;20030;-67
2023/01/14 15:00:19;;;;;;;22.92;4.07;;;;;;;;;;5017846;28;20054;-67
2023/01/14 15:02:53;;;;;;;25.10;4.88;;;;;;;;;;5020998;28;20035;-67
2023/01/14 15:05:22;;;;;;;19.63;4.07;;;;;;;;;;5024752;28;20520;-67
2023/01/14 15:07:49;;;;;;;26.67;4.40;;;;;;;;;;5025956;28;20509;-66
2023/01/14 15:10:16;;;;;;;30.00;5.03;;;;;;;;;;5033491;28;20037;-67
2023/01/14 15:12:42;;;;;;;22.15;5.25;;;;;;;;;;5033729;28;20029;-67
2023/01/14 15:15:20;;;;;;;27.00;5.57;;;;;;;;;;5032695;28;20037;-67
2023/01/14 15:17:47;;;;;;;23.90;4.15;;;;;;;;;;5030812;28;20021;-66
2023/01/14 15:20:15;;;;;;;20.88;4.85;;;;;;;;;;5013983;28;20026;-67
2023/01/14 15:22:41;;;;;;;19.73;3.55;;;;;;;;;;5017942;28;20033;-66
2023/01/14 15:25:11;;;;;;;26.83;4.47;;;;;;;;;;5021120;28;20041;-66
2023/01/14 15:27:37;;;;;;;30.70;5.25;;;;;;;;;;5016830;28;20059;-67
2023/01/14 15:30:18;;;;;;;21.15;4.65;;;;;;;;;;5018325;28;20025;-66
2023/01/14 15:32:45;;;;;;;22.67;4.25;;;;;;;;;;5025725;28;20037;-67